Time;durP1;ratioP1;P1;durP2;ratioP2;P2;SDS_P1;SDS_P2;PMS_P1;PMS_P2;Temp;Humidity;BMP_temperature;BMP_pressure;BME280_temperature;BME280_humidity;BME280_pressure;Samples;Min_cycle;Max_cycle;Signal;HPM_P1;HPM_P2
2023/10/05 00:04:24;;;;;;;6.03;2.38;;;26.90;49.40;;;;;;4935380;29;20540;-77
2023/10/05 00:06:53;;;;;;;4.43;2.00;;;27.00;50.00;;;;;;4935406;29;20059;-77
2023/10/05 00:09:21;;;;;;;3.83;2.00;;;27.00;50.00;;;;;;4934536;29;20044;-75
2023/10/05 00:11:47;;;;;;;3.53;2.03;;;26.90;49.50;;;;;;4934588;29;20523;-77
2023/10/05 00:14:13;;;;;;;6.18;2.22;;;27.00;50.10;;;;;;4935094;29;20090;-76
2023/10/05 00:16:44;;;;;;;3.28;2.08;;;26.90;49.50;;;;;;4935776;29;20032;-77
2023/10/05 00:19:12;;;;;;;3.20;2.25;;;27.00;50.10;;;;;;4936079;29;20043;-76
2023/10/05 00:21:50;;;;;;;3.40;2.17;;;27.00;50.20;;;;;;4932810;29;20040;-76
2023/10/05 00:24:34;;;;;;;6.55;1.92;;;27.00;50.10;;;;;;4935677;29;20058;-76
2023/10/05 00:27:08;;;;;;;2.10;1.85;;;26.90;49.50;;;;;;4933754;29;20039;-76
2023/10/05 00:29:41;;;;;;;2.63;1.65;;;26.90;49.50;;;;;;4934556;29;20039;-75
2023/10/05 00:32:22;;;;;;;4.22;2.42;;;26.90;49.50;;;;;;4933426;29;20523;-76
2023/10/05 00:34:55;;;;;;;3.30;1.88;;;27.10;50.10;;;;;;4935160;29;20735;-76
2023/10/05 00:37:22;;;;;;;4.05;1.90;;;27.00;50.20;;;;;;4918529;29;20395;-76
2023/10/05 00:39:49;;;;;;;6.63;2.10;;;26.90;49.60;;;;;;4934269;29;20047;-73
2023/10/05 00:42:15;;;;;;;5.03;2.72;;;26.90;49.60;;;;;;4935387;29;20046;-76
2023/10/05 00:44:43;;;;;;;2.95;1.90;;;26.80;49.60;;;;;;4935169;29;20036;-76
2023/10/05 00:47:12;;;;;;;5.43;2.13;;;26.80;49.60;;;;;;4934938;29;20051;-76
2023/10/05 00:49:45;;;;;;;7.43;2.50;;;26.80;49.60;;;;;;4935199;29;20491;-76
2023/10/05 00:52:15;;;;;;;6.38;2.00;;;26.90;49.70;;;;;;4933784;29;20032;-76
2023/10/05 00:54:51;;;;;;;5.28;1.70;;;26.90;49.80;;;;;;4935691;29;20098;-77
2023/10/05 00:57:22;;;;;;;6.60;2.38;;;26.90;49.90;;;;;;4917730;29;20040;-76
2023/10/05 01:02:34;;;;;;;3.45;1.98;;;26.80;50.00;;;;;;4934340;29;20043;-76
2023/10/05 01:05:14;;;;;;;1.70;1.48;;;26.90;50.00;;;;;;4935499;29;20031;-76
2023/10/05 01:07:43;;;;;;;3.72;1.80;;;26.90;50.00;;;;;;4918000;29;20460;-76
2023/10/05 01:12:48;;;;;;;4.85;2.28;;;26.90;50.00;;;;;;4932302;29;20047;-77
2023/10/05 01:15:22;;;;;;;5.53;2.42;;;26.90;50.10;;;;;;4933789;29;20039;-76
2023/10/05 01:17:52;;;;;;;4.28;2.17;;;26.90;50.10;;;;;;4935005;29;20030;-75
2023/10/05 01:20:23;;;;;;;4.15;2.15;;;26.90;50.00;;;;;;4934639;29;20194;-76
2023/10/05 01:22:49;;;;;;;2.67;2.28;;;26.70;50.00;;;;;;4933349;29;20090;-76
2023/10/05 01:25:16;;;;;;;4.13;2.55;;;26.80;50.00;;;;;;4933350;29;20047;-76
2023/10/05 01:27:45;;;;;;;6.15;2.38;;;26.90;50.10;;;;;;4933274;29;20070;-76
2023/10/05 01:30:15;;;;;;;4.55;2.40;;;26.80;50.10;;;;;;4934137;29;20028;-75
2023/10/05 01:32:42;;;;;;;5.60;2.05;;;26.80;50.00;;;;;;4934938;29;20102;-77
2023/10/05 01:35:09;;;;;;;6.68;2.22;;;26.80;50.10;;;;;;4933508;29;20082;-76
2023/10/05 01:37:36;;;;;;;3.42;2.10;;;26.80;50.10;;;;;;4934797;29;20031;-76
2023/10/05 01:40:20;;;;;;;3.95;2.33;;;26.90;50.10;;;;;;4933749;29;20039;-76
2023/10/05 01:42:48;;;;;;;7.00;2.33;;;26.90;50.10;;;;;;4934901;29;20039;-76
2023/10/05 01:45:17;;;;;;;3.55;1.80;;;26.80;50.10;;;;;;4933231;29;20110;-75
2023/10/05 01:47:46;;;;;;;4.28;1.90;;;26.80;50.20;;;;;;4917506;29;20337;-75
2023/10/05 01:50:22;;;;;;;4.57;2.05;;;26.70;50.30;;;;;;4933187;29;20107;-75
2023/10/05 01:55:36;;;;;;;5.57;2.28;;;26.70;50.30;;;;;;4917571;29;20394;-76
2023/10/05 01:58:06;;;;;;;5.13;2.30;;;26.70;50.40;;;;;;4914432;29;20032;-76
2023/10/05 02:00:37;;;;;;;5.85;2.00;;;26.70;50.40;;;;;;4930640;29;20044;-76
2023/10/05 02:03:11;;;;;;;5.57;2.38;;;26.80;50.40;;;;;;4916083;29;20095;-76
2023/10/05 02:05:38;;;;;;;9.57;2.38;;;26.80;50.40;;;;;;4916229;29;20052;-76
2023/10/05 02:08:05;;;;;;;7.80;2.33;;;26.70;50.50;;;;;;4915973;29;20456;-76
2023/10/05 02:10:39;;;;;;;3.67;2.10;;;26.80;50.40;;;;;;4931538;29;20121;-75
2023/10/05 02:13:11;;;;;;;5.90;2.35;;;26.80;50.50;;;;;;4900582;29;20151;-76
2023/10/05 02:15:41;;;;;;;6.93;2.40;;;26.80;50.50;;;;;;4915928;29;20396;-75
2023/10/05 02:18:30;;;;;;;6.78;2.55;;;26.80;50.40;;;;;;4932020;29;20055;-76
2023/10/05 02:21:05;;;;;;;5.32;2.17;;;26.80;50.40;;;;;;4915972;29;20047;-76
2023/10/05 02:23:38;;;;;;;5.50;2.58;;;26.80;50.40;;;;;;4900586;29;20067;-76
2023/10/05 02:26:10;;;;;;;7.97;2.20;;;26.90;50.40;;;;;;4931822;29;20048;-76
2023/10/05 02:28:39;;;;;;;9.52;2.38;;;26.80;50.40;;;;;;4931503;29;20062;-75
2023/10/05 02:31:12;;;;;;;5.28;2.30;;;26.80;50.40;;;;;;4906984;29;20056;-75
2023/10/05 02:33:40;;;;;;;4.85;2.08;;;26.70;50.40;;;;;;4913655;29;20045;-76
2023/10/05 02:38:57;;;;;;;3.15;1.75;;;26.70;50.50;;;;;;4897350;29;20084;-75
2023/10/05 02:41:38;;;;;;;9.07;2.28;;;26.70;50.50;;;;;;4906978;29;20040;-76
2023/10/05 02:44:27;;;;;;;3.75;2.17;;;26.80;50.50;;;;;;4884890;29;20111;-76
2023/10/05 02:46:53;;;;;;;4.45;2.38;;;26.60;50.60;;;;;;4915896;29;20036;-76
2023/10/05 02:49:22;;;;;;;4.45;1.95;;;26.60;50.70;;;;;;4900014;29;20055;-77
2023/10/05 02:51:55;;;;;;;6.60;2.33;;;26.60;50.70;;;;;;4916506;29;20119;-76
2023/10/05 02:54:24;;;;;;;6.45;2.72;;;26.60;50.80;;;;;;4915813;29;20092;-77
2023/10/05 02:56:53;;;;;;;3.70;1.70;;;26.70;50.80;;;;;;4915768;29;20060;-74
2023/10/05 02:59:24;;;;;;;3.22;1.95;;;26.70;50.70;;;;;;4899793;29;20036;-76
2023/10/05 03:01:53;;;;;;;3.78;1.95;;;26.80;50.70;;;;;;4899425;29;20063;-76
2023/10/05 03:04:21;;;;;;;2.38;1.40;;;26.80;50.80;;;;;;4899677;29;20035;-75
2023/10/05 03:06:50;;;;;;;4.97;2.60;;;26.70;50.70;;;;;;4915538;29;20044;-76
2023/10/05 03:09:18;;;;;;;5.70;2.78;;;26.80;50.70;;;;;;4899775;29;20040;-76
2023/10/05 03:11:47;;;;;;;5.28;2.33;;;26.70;50.70;;;;;;4898370;29;20549;-75
2023/10/05 03:14:16;;;;;;;4.38;2.17;;;26.70;50.70;;;;;;4881112;29;20047;-76
2023/10/05 03:16:44;;;;;;;4.68;2.25;;;26.70;50.70;;;;;;4922517;29;20102;-76
2023/10/05 03:19:16;;;;;;;4.50;2.08;;;26.60;50.70;;;;;;4935178;29;20031;-75
2023/10/05 03:21:45;;;;;;;5.97;2.00;;;26.60;50.70;;;;;;4935628;29;20044;-76
2023/10/05 03:24:13;;;;;;;6.07;2.33;;;26.70;50.70;;;;;;4937037;29;20031;-75
2023/10/05 03:26:41;;;;;;;10.63;2.47;;;26.70;50.80;;;;;;4900661;29;20416;-76
2023/10/05 03:29:11;;;;;;;5.63;2.50;;;26.60;50.70;;;;;;4924941;29;20043;-75
2023/10/05 03:31:43;;;;;;;8.55;3.05;;;26.60;50.70;;;;;;4935243;29;20056;-75
2023/10/05 03:34:10;;;;;;;4.75;2.35;;;26.60;50.80;;;;;;4919373;29;20047;-75
2023/10/05 03:36:36;;;;;;;10.65;3.10;;;26.60;50.80;;;;;;4935853;29;20044;-76
2023/10/05 03:39:07;;;;;;;7.65;3.15;;;26.70;50.80;;;;;;4935413;29;20047;-76
2023/10/05 03:41:38;;;;;;;4.65;2.30;;;26.60;50.90;;;;;;4934864;29;20059;-75
2023/10/05 03:44:07;;;;;;;6.75;3.35;;;26.60;50.90;;;;;;4917703;29;20040;-76
2023/10/05 03:46:35;;;;;;;6.22;3.15;;;26.70;51.00;;;;;;4918029;29;20059;-76
2023/10/05 03:49:06;;;;;;;8.85;3.17;;;26.60;50.90;;;;;;4917790;29;20067;-74
2023/10/05 03:51:35;;;;;;;5.93;2.90;;;26.70;51.00;;;;;;4918161;29;20115;-76
2023/10/05 03:54:04;;;;;;;13.73;3.00;;;26.70;51.00;;;;;;4917257;29;20551;-75
2023/10/05 03:56:31;;;;;;;7.32;2.92;;;26.70;51.00;;;;;;4915085;29;20196;-75
2023/10/05 03:59:00;;;;;;;9.13;2.42;;;26.60;51.00;;;;;;4920655;29;20040;-75
2023/10/05 04:01:27;;;;;;;5.45;2.72;;;26.60;51.00;;;;;;4914181;29;20088;-75
2023/10/05 04:03:54;;;;;;;6.28;2.20;;;26.70;51.00;;;;;;4914623;29;20044;-75
2023/10/05 04:06:20;;;;;;;4.00;2.22;;;26.70;50.90;;;;;;4914531;29;20186;-76
2023/10/05 04:09:00;;;;;;;5.05;2.60;;;26.70;50.90;;;;;;4929747;29;20036;-75
2023/10/05 04:11:27;;;;;;;4.95;2.50;;;26.70;50.80;;;;;;4914527;29;20140;-76
2023/10/05 04:13:54;;;;;;;9.52;2.90;;;26.70;50.90;;;;;;4919396;29;20032;-76
2023/10/05 04:16:26;;;;;;;8.13;3.08;;;26.60;50.90;;;;;;4934327;29;20044;-77
2023/10/05 04:18:58;;;;;;;8.90;3.22;;;26.70;50.90;;;;;;4935184;29;20028;-76
2023/10/05 04:21:26;;;;;;;6.10;2.92;;;26.70;50.90;;;;;;4935670;29;20036;-76
2023/10/05 04:23:52;;;;;;;4.70;2.58;;;26.60;50.90;;;;;;4935211;29;20396;-76
2023/10/05 04:26:26;;;;;;;4.93;2.40;;;26.60;50.90;;;;;;4935803;29;20082;-76
2023/10/05 04:28:52;;;;;;;5.65;3.08;;;26.60;50.90;;;;;;4935207;29;20042;-76
2023/10/05 04:31:25;;;;;;;12.27;2.53;;;26.50;50.90;;;;;;4935476;29;20031;-75
2023/10/05 04:33:55;;;;;;;3.85;2.65;;;26.50;50.90;;;;;;4935812;29;20044;-76
2023/10/05 04:36:23;;;;;;;10.90;2.75;;;26.50;50.90;;;;;;4935513;29;20050;-76
2023/10/05 04:38:53;;;;;;;7.88;2.95;;;26.50;51.00;;;;;;4935625;29;20110;-76
2023/10/05 04:41:28;;;;;;;5.38;3.20;;;26.50;51.00;;;;;;4934608;29;20055;-76
2023/10/05 04:43:57;;;;;;;10.48;2.53;;;26.50;51.00;;;;;;4918554;29;20405;-76
2023/10/05 04:46:24;;;;;;;4.53;3.03;;;26.80;51.00;;;;;;4935215;29;20063;-75
2023/10/05 04:49:07;;;;;;;7.32;2.53;;;26.50;51.00;;;;;;4935080;29;20047;-75
2023/10/05 04:51:38;;;;;;;;;;;26.50;51.00;;;;;;4935656;29;20035;-75
2023/10/05 04:54:12;;;;;;;5.18;2.60;;;26.50;51.00;;;;;;4934831;29;19915;-75
2023/10/05 05:07:01;;;;;;;11.88;3.78;;;26.50;50.90;;;;;;4943373;29;20046;-76
2023/10/05 05:09:34;;;;;;;7.55;3.38;;;26.50;50.90;;;;;;4945630;29;20062;-76
2023/10/05 05:12:08;;;;;;;9.60;3.28;;;26.60;50.90;;;;;;4946410;29;20467;-76
2023/10/05 05:14:41;;;;;;;6.78;3.55;;;26.50;50.90;;;;;;4939970;29;20059;-75
2023/10/05 05:17:11;;;;;;;5.68;2.90;;;26.50;50.90;;;;;;4934395;29;20473;-76
2023/10/05 05:19:41;;;;;;;9.32;3.35;;;26.50;50.90;;;;;;4934865;29;20111;-75
2023/10/05 05:22:08;;;;;;;7.18;2.60;;;26.50;50.90;;;;;;4933427;29;20043;-75
2023/10/05 05:24:36;;;;;;;7.90;2.97;;;26.50;50.90;;;;;;4934731;29;20400;-76
2023/10/05 05:29:38;;;;;;;17.63;3.97;;;26.40;50.90;;;;;;4915887;29;20081;-77
2023/10/05 05:32:10;;;;;;;15.65;3.80;;;26.50;51.00;;;;;;4928286;29;20074;-76
2023/10/05 05:34:42;;;;;;;5.68;3.40;;;26.60;51.00;;;;;;4934761;29;20051;-76
2023/10/05 05:37:18;;;;;;;6.45;3.10;;;26.50;51.10;;;;;;4934567;29;20043;-76
2023/10/05 05:39:44;;;;;;;9.13;3.30;;;26.50;51.10;;;;;;4934921;29;20054;-75
2023/10/05 05:42:14;;;;;;;13.15;3.90;;;26.50;51.10;;;;;;4934797;29;20050;-76
2023/10/05 05:44:41;;;;;;;9.68;3.25;;;26.40;51.10;;;;;;4934917;29;20036;-76
2023/10/05 05:47:10;;;;;;;14.38;3.55;;;26.50;51.10;;;;;;4934996;29;20048;-75
2023/10/05 05:49:40;;;;;;;11.43;3.90;;;26.50;51.10;;;;;;4933766;29;20036;-75
2023/10/05 05:52:10;;;;;;;7.88;3.60;;;26.50;51.10;;;;;;4934125;29;20153;-76
2023/10/05 05:54:36;;;;;;;12.68;3.88;;;26.60;51.10;;;;;;4934446;29;20488;-76
2023/10/05 05:57:09;;;;;;;14.85;3.58;;;26.40;51.10;;;;;;4933286;29;20075;-76
2023/10/05 05:59:36;;;;;;;15.77;3.90;;;26.60;51.00;;;;;;4934623;29;20032;-76
2023/10/05 06:02:08;;;;;;;6.80;3.45;;;26.60;51.00;;;;;;4934212;29;20043;-76
2023/10/05 06:04:35;;;;;;;7.30;4.05;;;26.50;51.00;;;;;;4932590;29;20058;-77
2023/10/05 06:07:04;;;;;;;13.43;4.05;;;26.60;51.00;;;;;;4933731;29;20173;-75
2023/10/05 06:09:33;;;;;;;2.00;1.70;;;26.50;51.00;;;;;;4932970;29;20096;-72
2023/10/05 06:12:03;;;;;;;5.72;2.00;;;26.50;51.20;;;;;;4936679;29;20029;-78
2023/10/05 06:14:31;;;;;;;3.80;2.08;;;26.50;52.20;;;;;;4938354;29;20416;-75
2023/10/05 06:16:58;;;;;;;4.57;2.40;;;26.60;52.00;;;;;;4938858;29;20040;-76
2023/10/05 06:19:25;;;;;;;4.95;2.38;;;26.50;51.50;;;;;;4937805;29;20024;-75
2023/10/05 06:21:52;;;;;;;3.78;2.63;;;26.60;52.00;;;;;;4938713;29;20039;-74
2023/10/05 06:24:18;;;;;;;8.20;2.40;;;26.70;52.50;;;;;;4937365;29;20039;-74
2023/10/05 06:26:45;;;;;;;10.10;3.65;;;26.90;53.60;;;;;;4937880;29;20042;-76
2023/10/05 06:29:13;;;;;;;8.88;3.97;;;27.00;53.90;;;;;;4936607;29;20031;-76
2023/10/05 06:31:43;;;;;;;4.18;3.10;;;27.20;53.70;;;;;;4937263;29;20063;-76
2023/10/05 06:34:09;;;;;;;6.75;4.80;;;27.20;52.10;;;;;;4937286;29;20052;-74
2023/10/05 06:36:39;;;;;;;7.30;5.15;;;27.20;51.30;;;;;;4938159;29;20065;-78
2023/10/05 06:39:14;;;;;;;6.57;5.72;;;27.20;52.00;;;;;;4938418;29;20455;-74
2023/10/05 06:41:41;;;;;;;5.78;4.45;;;27.30;51.60;;;;;;4937721;29;20036;-75
2023/10/05 06:44:10;;;;;;;9.77;4.32;;;27.40;51.30;;;;;;4935741;29;20032;-72
2023/10/05 06:46:40;;;;;;;9.70;3.33;;;27.40;54.20;;;;;;4936733;29;20047;-74
2023/10/05 06:49:06;;;;;;;5.05;3.25;;;27.40;51.80;;;;;;4948471;29;20469;-72
2023/10/05 06:51:32;;;;;;;5.85;3.22;;;27.40;51.50;;;;;;4936800;29;20038;-73
2023/10/05 06:53:59;;;;;;;7.57;4.30;;;27.30;51.20;;;;;;4935601;29;20040;-74
2023/10/05 06:56:26;;;;;;;6.85;3.38;;;27.50;51.00;;;;;;4941238;29;20039;-73
2023/10/05 06:58:53;;;;;;;8.10;3.63;;;27.40;51.10;;;;;;4935516;29;20488;-75
2023/10/05 07:01:22;;;;;;;12.13;3.45;;;27.30;51.00;;;;;;4936648;29;20043;-75
2023/10/05 07:03:52;;;;;;;9.93;3.63;;;27.30;51.40;;;;;;4936273;29;20040;-73
2023/10/05 07:06:25;;;;;;;9.57;3.20;;;27.30;51.40;;;;;;4935931;29;20040;-76
2023/10/05 07:08:54;;;;;;;9.95;4.38;;;27.40;51.40;;;;;;4936463;29;20035;-75
2023/10/05 07:11:20;;;;;;;8.07;3.55;;;27.40;52.00;;;;;;4936154;29;20043;-74
2023/10/05 07:13:47;;;;;;;6.63;3.63;;;27.20;52.20;;;;;;4934842;29;20106;-74
2023/10/05 07:16:13;;;;;;;7.28;3.33;;;27.20;51.90;;;;;;4935712;29;20070;-74
2023/10/05 07:18:39;;;;;;;5.30;3.05;;;27.30;52.00;;;;;;4936324;29;20032;-75
2023/10/05 07:21:08;;;;;;;5.57;3.20;;;27.30;52.10;;;;;;4936446;29;20031;-75
2023/10/05 07:23:36;;;;;;;10.60;4.18;;;27.30;52.00;;;;;;4917933;29;20040;-75
2023/10/05 07:26:03;;;;;;;6.15;3.47;;;27.30;52.00;;;;;;4935887;29;20115;-74
2023/10/05 07:28:30;;;;;;;5.80;3.30;;;27.30;52.10;;;;;;4936298;29;20155;-76
2023/10/05 07:30:56;;;;;;;4.68;2.58;;;27.20;51.90;;;;;;4935885;29;20460;-77
2023/10/05 07:33:22;;;;;;;3.10;2.28;;;27.20;51.80;;;;;;4935370;29;20047;-75
2023/10/05 07:35:48;;;;;;;3.80;1.73;;;27.40;51.90;;;;;;4935692;29;20042;-72
2023/10/05 07:38:14;;;;;;;3.47;1.70;;;27.30;52.00;;;;;;4935646;29;20031;-70
2023/10/05 07:40:42;;;;;;;5.25;2.00;;;27.20;51.80;;;;;;4935609;29;20049;-72
2023/10/05 07:43:08;;;;;;;3.08;1.73;;;27.30;51.80;;;;;;4935236;29;20043;-76
2023/10/05 07:45:34;;;;;;;4.25;2.17;;;27.30;51.70;;;;;;4935470;29;20091;-73
2023/10/05 07:48:01;;;;;;;2.72;1.90;;;27.20;51.50;;;;;;4934969;29;20051;-76
2023/10/05 07:50:27;;;;;;;4.13;2.55;;;27.30;51.10;;;;;;4935044;29;20039;-71
2023/10/05 07:52:55;;;;;;;3.85;2.40;;;27.40;50.60;;;;;;4935885;29;20038;-75
2023/10/05 07:55:21;;;;;;;3.63;2.25;;;27.40;50.10;;;;;;4935946;29;20087;-76
2023/10/05 07:57:48;;;;;;;4.95;2.30;;;27.30;49.90;;;;;;4954582;28;20035;-75
2023/10/05 08:00:15;;;;;;;6.72;2.13;;;27.50;49.70;;;;;;4954841;29;20035;-74
2023/10/05 08:02:41;;;;;;;8.65;2.60;;;27.40;49.30;;;;;;4954302;29;20028;-76
2023/10/05 08:05:09;;;;;;;5.80;2.05;;;27.40;49.20;;;;;;4954124;29;20048;-74
2023/10/05 08:07:35;;;;;;;2.15;1.65;;;27.30;49.20;;;;;;4939531;28;20028;-75
2023/10/05 08:10:03;;;;;;;4.10;1.92;;;27.40;49.30;;;;;;4934215;29;20387;-71
2023/10/05 08:12:29;;;;;;;3.88;1.77;;;27.40;49.30;;;;;;4934542;29;20059;-72
2023/10/05 08:14:55;;;;;;;5.18;2.47;;;27.50;50.30;;;;;;4934364;29;20075;-72
2023/10/05 08:17:24;;;;;;;5.75;2.38;;;27.50;49.40;;;;;;4933711;29;20090;-74
2023/10/05 08:19:50;;;;;;;6.45;1.90;;;27.60;48.60;;;;;;4934868;29;20036;-74
2023/10/05 08:22:16;;;;;;;5.40;2.60;;;27.80;48.10;;;;;;4934016;29;20032;-74
2023/10/05 08:24:43;;;;;;;4.88;1.80;;;27.80;47.60;;;;;;4934580;29;20031;-73
2023/10/05 08:27:13;;;;;;;3.20;1.80;;;27.90;46.70;;;;;;4935175;29;20384;-79
2023/10/05 08:29:44;;;;;;;3.92;1.95;;;27.80;46.20;;;;;;4934797;29;20036;-79
2023/10/05 08:32:13;;;;;;;5.05;1.70;;;27.80;45.80;;;;;;4935771;29;20511;-78
2023/10/05 08:34:41;;;;;;;3.25;1.67;;;27.80;45.50;;;;;;4934287;29;20098;-77
2023/10/05 08:37:11;;;;;;;4.30;2.22;;;27.80;45.10;;;;;;4934510;29;20536;-80
2023/10/05 08:39:37;;;;;;;9.32;1.90;;;27.80;44.70;;;;;;4934764;29;20483;-77
2023/10/05 08:42:07;;;;;;;5.63;2.67;;;27.70;44.60;;;;;;4934307;29;20032;-74
2023/10/05 08:44:41;;;;;;;6.05;1.73;;;27.60;44.60;;;;;;4935105;29;20034;-78
2023/10/05 08:47:12;;;;;;;3.92;1.88;;;27.60;44.40;;;;;;4933516;29;20091;-77
2023/10/05 08:49:43;;;;;;;2.60;2.08;;;27.60;44.30;;;;;;4935157;29;20051;-80
2023/10/05 08:52:19;;;;;;;3.22;2.13;;;27.60;44.60;;;;;;4934729;29;20032;-77
2023/10/05 08:54:46;;;;;;;6.78;2.20;;;27.40;44.60;;;;;;4933810;29;20028;-75
2023/10/05 08:57:13;;;;;;;3.05;2.10;;;27.40;44.20;;;;;;4935036;29;20044;-75
2023/10/05 08:59:45;;;;;;;3.20;2.03;;;27.40;44.70;;;;;;4934449;29;20480;-78
2023/10/05 09:02:21;;;;;;;4.43;2.22;;;27.40;44.50;;;;;;4934397;29;20038;-71
2023/10/05 09:04:57;;;;;;;2.92;1.63;;;27.40;45.00;;;;;;4933545;29;20036;-77
2023/10/05 09:07:28;;;;;;;4.15;2.00;;;27.30;45.50;;;;;;4933063;29;20032;-76
2023/10/05 09:09:54;;;;;;;3.40;1.88;;;27.50;45.80;;;;;;4932336;29;20135;-77
2023/10/05 09:12:46;;;;;;;3.10;2.25;;;27.30;46.10;;;;;;4934134;29;20476;-74
2023/10/05 09:15:22;;;;;;;4.53;2.20;;;27.40;46.20;;;;;;4932900;29;20057;-77
2023/10/05 09:17:57;;;;;;;3.10;1.85;;;27.40;45.60;;;;;;4934124;29;20420;-77
2023/10/05 09:20:24;;;;;;;5.45;2.10;;;27.30;46.00;;;;;;4934184;29;20102;-74
2023/10/05 09:22:55;;;;;;;4.65;2.50;;;27.30;45.90;;;;;;4934022;29;20382;-78
2023/10/05 09:25:27;;;;;;;2.70;1.88;;;27.40;46.20;;;;;;4933770;29;20594;-77
2023/10/05 09:28:09;;;;;;;5.28;1.85;;;27.20;46.40;;;;;;4933816;29;20083;-78
2023/10/05 09:30:56;;;;;;;1.85;1.60;;;27.30;46.40;;;;;;4934068;29;20545;-79
2023/10/05 09:33:33;;;;;;;4.05;1.83;;;27.20;46.40;;;;;;4931850;29;20380;-76
2023/10/05 09:36:16;;;;;;;3.80;1.85;;;27.30;46.30;;;;;;4933094;29;20039;-76
2023/10/05 09:38:46;;;;;;;4.05;1.63;;;27.30;47.60;;;;;;4933830;29;20109;-78
2023/10/05 09:41:25;;;;;;;4.28;2.15;;;27.20;48.90;;;;;;4934228;29;20036;-79
2023/10/05 09:44:00;;;;;;;4.03;1.90;;;27.20;49.70;;;;;;4933128;29;20071;-74
2023/10/05 09:46:29;;;;;;;11.68;3.28;;;27.30;51.40;;;;;;4934680;29;20024;-77
2023/10/05 09:49:01;;;;;;;4.10;2.15;;;27.40;52.60;;;;;;4937417;29;20500;-79
2023/10/05 09:51:28;;;;;;;3.95;1.80;;;27.60;56.70;;;;;;4938172;29;20051;-77
2023/10/05 09:53:59;;;;;;;3.88;2.03;;;27.80;55.90;;;;;;4937412;29;20040;-74
2023/10/05 09:56:26;;;;;;;4.32;2.58;;;27.70;50.50;;;;;;4938755;29;20111;-71
2023/10/05 09:58:58;;;;;;;5.07;2.13;;;27.70;49.00;;;;;;4927905;29;20039;-72
2023/10/05 10:01:26;;;;;;;2.20;1.77;;;27.70;48.40;;;;;;4935636;29;20568;-71
2023/10/05 10:03:55;;;;;;;3.13;2.00;;;27.60;47.80;;;;;;4937452;29;20058;-71
2023/10/05 10:06:28;;;;;;;3.00;1.77;;;27.60;47.60;;;;;;4937638;29;20027;-71
2023/10/05 10:08:57;;;;;;;;;;;27.70;47.40;;;;;;4938092;29;20473;-70
2023/10/05 10:11:31;;;;;;;4.78;2.00;;;27.60;47.30;;;;;;4920167;29;19911;-69
2023/10/05 10:14:03;;;;;;;3.30;2.30;;;27.70;47.00;;;;;;4934201;29;20048;-69
2023/10/05 10:16:33;;;;;;;3.93;2.13;;;27.60;46.90;;;;;;4923733;29;20444;-69
2023/10/05 10:19:08;;;;;;;3.72;1.67;;;27.60;46.70;;;;;;4921857;29;20115;-69
2023/10/05 10:21:46;;;;;;;2.75;1.60;;;27.80;46.40;;;;;;4917906;29;20040;-70
2023/10/05 10:24:19;;;;;;;3.35;1.85;;;27.70;46.40;;;;;;4916561;29;20067;-71
2023/10/05 10:26:53;;;;;;;4.18;2.17;;;27.80;46.10;;;;;;4933926;29;20488;-73
2023/10/05 10:29:22;;;;;;;5.32;2.15;;;27.90;46.50;;;;;;4918837;29;20396;-75
2023/10/05 10:32:22;;;;;;;3.40;2.33;;;27.90;46.70;;;;;;4935954;29;20059;-74
2023/10/05 10:34:56;;;;;;;4.07;2.65;;;27.90;45.40;;;;;;4937204;29;20051;-69
2023/10/05 10:37:49;;;;;;;5.20;2.03;;;27.90;46.50;;;;;;4937188;29;20035;-69
2023/10/05 10:45:40;;;;;;;4.13;2.25;;;28.40;46.20;;;;;;4935193;29;20040;-70
2023/10/05 10:48:28;;;;;;;4.57;2.08;;;28.40;45.20;;;;;;4915101;29;20059;-71
2023/10/05 10:50:59;;;;;;;3.78;2.00;;;28.40;44.40;;;;;;4925624;29;20048;-69
2023/10/05 10:53:31;;;;;;;2.88;2.05;;;28.40;43.90;;;;;;4936294;29;20087;-69
2023/10/05 10:55:59;;;;;;;2.85;2.55;;;28.40;43.60;;;;;;4940166;29;20500;-70
2023/10/05 10:58:30;;;;;;;5.65;2.30;;;28.30;43.50;;;;;;4953077;28;20031;-71
2023/10/05 11:00:59;;;;;;;3.45;2.65;;;28.30;43.30;;;;;;4934992;29;20035;-70
2023/10/05 11:03:30;;;;;;;7.72;2.65;;;28.20;43.50;;;;;;4949400;29;20032;-70
2023/10/05 11:06:03;;;;;;;3.88;2.40;;;28.20;43.70;;;;;;4937745;29;20119;-70
2023/10/05 11:08:40;;;;;;;2.42;1.98;;;28.10;43.80;;;;;;4935745;29;20040;-71
2023/10/05 11:11:15;;;;;;;2.63;1.98;;;28.10;44.00;;;;;;4935768;29;20107;-70
2023/10/05 11:13:49;;;;;;;4.40;1.70;;;28.10;44.10;;;;;;4936075;29;20102;-70
2023/10/05 11:16:15;;;;;;;4.43;1.98;;;28.20;44.10;;;;;;4933839;29;20035;-70
2023/10/05 11:18:57;;;;;;;4.57;2.25;;;28.00;44.10;;;;;;4934524;29;20023;-70
2023/10/05 11:21:26;;;;;;;6.47;2.42;;;28.20;44.10;;;;;;4933645;29;20027;-70
2023/10/05 11:23:57;;;;;;;3.50;2.05;;;28.00;44.20;;;;;;4935908;29;20039;-70
2023/10/05 11:28:55;;;;;;;3.42;2.00;;;28.10;44.20;;;;;;4931729;29;20058;-70
2023/10/05 11:31:24;;;;;;;3.35;1.98;;;28.00;44.10;;;;;;4921517;29;20074;-70
2023/10/05 11:33:53;;;;;;;3.40;2.33;;;28.00;45.40;;;;;;4933449;29;20067;-70
2023/10/05 11:36:33;;;;;;;3.17;1.90;;;28.20;45.50;;;;;;4934149;29;20410;-71
2023/10/05 11:39:00;;;;;;;2.85;1.80;;;28.10;44.40;;;;;;4932764;29;20031;-71
2023/10/05 11:41:28;;;;;;;5.82;2.30;;;28.10;45.50;;;;;;4932983;29;20040;-71
2023/10/05 11:43:55;;;;;;;4.82;1.92;;;28.10;45.80;;;;;;4930630;29;20484;-72
2023/10/05 11:46:29;;;;;;;3.85;1.88;;;28.30;45.30;;;;;;4933989;29;20146;-71
2023/10/05 11:48:55;;;;;;;5.78;2.38;;;28.30;44.50;;;;;;4936303;29;20534;-71
2023/10/05 11:51:27;;;;;;;5.07;2.30;;;28.30;45.00;;;;;;4935030;29;20126;-69
2023/10/05 11:53:55;;;;;;;3.00;1.95;;;28.40;43.30;;;;;;4933225;29;20031;-71
2023/10/05 11:56:30;;;;;;;3.58;2.17;;;28.30;43.00;;;;;;4933812;29;20129;-70
2023/10/05 11:59:00;;;;;;;3.38;2.03;;;28.20;42.70;;;;;;4937724;29;20211;-70
2023/10/05 12:01:32;;;;;;;4.63;2.50;;;28.10;42.60;;;;;;4934600;29;20036;-69
2023/10/05 12:03:58;;;;;;;3.05;2.00;;;28.30;42.70;;;;;;4934879;29;20047;-67
2023/10/05 12:06:28;;;;;;;4.25;2.25;;;28.20;42.70;;;;;;4934206;29;20210;-70
2023/10/05 12:09:00;;;;;;;2.85;2.03;;;28.30;42.80;;;;;;4939773;29;20034;-70
2023/10/05 12:11:27;;;;;;;3.60;2.72;;;28.30;43.00;;;;;;4912816;29;20580;-70
2023/10/05 12:13:59;;;;;;;3.40;2.28;;;28.20;43.30;;;;;;4894114;29;20064;-71
2023/10/05 12:16:27;;;;;;;5.70;2.60;;;28.10;43.50;;;;;;4894480;29;20139;-71
2023/10/05 12:18:54;;;;;;;4.55;2.92;;;28.20;43.70;;;;;;4895387;29;20045;-73
2023/10/05 12:21:22;;;;;;;4.60;3.22;;;28.10;43.80;;;;;;4897120;29;20047;-75
2023/10/05 12:23:49;;;;;;;5.43;2.42;;;28.00;43.90;;;;;;4917522;29;20138;-75
2023/10/05 12:26:15;;;;;;;5.65;2.40;;;28.20;44.00;;;;;;4898415;29;20401;-76
2023/10/05 12:28:43;;;;;;;2.35;1.75;;;28.10;44.20;;;;;;4913859;29;20067;-75
2023/10/05 12:31:10;;;;;;;5.18;2.88;;;28.00;44.40;;;;;;4913393;29;20068;-76
2023/10/05 12:33:39;;;;;;;5.68;2.40;;;28.00;44.50;;;;;;4913043;29;20056;-76
2023/10/05 12:36:08;;;;;;;5.57;2.90;;;28.10;44.60;;;;;;4913905;29;20071;-77
2023/10/05 12:38:36;;;;;;;5.93;2.72;;;28.00;44.70;;;;;;4912894;29;20044;-75
2023/10/05 12:41:14;;;;;;;3.05;2.17;;;28.00;44.80;;;;;;4915409;29;20040;-75
2023/10/05 12:43:42;;;;;;;7.68;2.95;;;28.00;44.90;;;;;;4912556;29;20054;-76
2023/10/05 12:46:10;;;;;;;3.50;2.35;;;28.10;45.00;;;;;;4918439;29;20032;-76
2023/10/05 12:48:38;;;;;;;8.90;2.88;;;27.90;44.50;;;;;;4917764;29;20515;-76
2023/10/05 12:51:05;;;;;;;3.67;2.28;;;27.80;44.60;;;;;;4933510;29;20234;-79
2023/10/05 12:53:33;;;;;;;3.50;2.05;;;27.90;44.60;;;;;;4933652;29;20047;-77
2023/10/05 12:56:01;;;;;;;3.08;1.60;;;27.80;44.70;;;;;;4938821;29;20070;-77
2023/10/05 12:58:27;;;;;;;3.47;2.80;;;27.90;44.80;;;;;;4942546;29;20492;-75
2023/10/05 13:00:54;;;;;;;4.97;2.58;;;27.80;44.90;;;;;;4934093;29;20091;-77
2023/10/05 13:03:24;;;;;;;6.05;2.47;;;27.90;45.00;;;;;;4932184;29;20090;-74
2023/10/05 13:05:51;;;;;;;6.90;2.33;;;27.80;45.10;;;;;;4933868;29;20716;-76
2023/10/05 13:08:20;;;;;;;4.20;2.42;;;27.80;45.20;;;;;;4926769;29;20540;-74
2023/10/05 13:10:48;;;;;;;5.40;2.95;;;27.80;45.20;;;;;;4933346;29;20047;-74
2023/10/05 13:13:25;;;;;;;2.38;1.75;;;27.70;45.40;;;;;;4932709;29;20182;-76
2023/10/05 13:15:53;;;;;;;4.97;2.25;;;27.70;45.50;;;;;;4934490;29;20047;-75
2023/10/05 13:18:19;;;;;;;3.53;2.55;;;27.80;45.60;;;;;;4936270;29;20027;-75
2023/10/05 13:20:51;;;;;;;3.15;2.17;;;27.70;45.70;;;;;;4933423;29;20047;-76
2023/10/05 13:23:24;;;;;;;6.53;2.00;;;27.70;45.80;;;;;;4934293;29;20039;-77
2023/10/05 13:25:52;;;;;;;5.60;1.98;;;27.80;45.90;;;;;;4933113;29;20095;-77
2023/10/05 13:28:19;;;;;;;6.80;2.78;;;27.80;46.00;;;;;;4934243;29;20095;-77
2023/10/05 13:30:47;;;;;;;8.52;2.35;;;27.80;46.00;;;;;;4934473;29;20119;-77
2023/10/05 13:33:17;;;;;;;3.00;1.42;;;27.60;45.90;;;;;;4932723;29;20067;-78
2023/10/05 13:35:44;;;;;;;2.85;1.67;;;27.70;45.90;;;;;;4933840;29;20667;-78